Time;durP1;ratioP1;P1;durP2;ratioP2;P2;SDS_P1;SDS_P2;PMS_P1;PMS_P2;Temp;Humidity;BMP_temperature;BMP_pressure;BME280_temperature;BME280_humidity;BME280_pressure;Samples;Min_cycle;Max_cycle;Signal;HPM_P1;HPM_P2
2023/11/03 00:04:39;;;;;;;4.25;0.90;;;10.40;99.90;;;;;;15521537;22;20034;-82
2023/11/03 00:10:41;;;;;;;7.05;1.05;;;10.40;99.90;;;;;;15521155;22;20449;-81
2023/11/03 00:16:46;;;;;;;5.90;1.42;;;10.30;99.90;;;;;;15542236;22;20050;-83
2023/11/03 00:22:51;;;;;;;7.10;0.75;;;10.30;99.90;;;;;;15524790;22;20032;-82
2023/11/03 00:28:53;;;;;;;;;;;10.20;99.90;;;;;;15544313;22;20032;-80
2023/11/03 00:34:55;;;;;;;5.32;1.35;;;10.10;99.90;;;;;;15515665;22;20075;-85
2023/11/03 00:40:58;;;;;;;4.45;0.90;;;10.00;99.90;;;;;;15524696;22;20023;-82
2023/11/03 00:47:00;;;;;;;7.22;1.27;;;10.10;99.90;;;;;;15515444;22;20530;-84
2023/11/03 00:53:02;;;;;;;6.97;0.80;;;10.00;99.90;;;;;;15523305;22;20180;-81
2023/11/03 00:59:04;;;;;;;10.23;1.13;;;10.00;99.90;;;;;;15518773;22;20023;-84
2023/11/03 01:05:06;;;;;;;5.82;0.93;;;10.00;99.90;;;;;;15548191;22;20039;-82
2023/11/03 01:11:09;;;;;;;6.55;1.00;;;10.00;99.90;;;;;;15524841;22;20026;-83
2023/11/03 01:17:11;;;;;;;5.00;1.10;;;10.00;99.90;;;;;;15528722;22;20564;-80
2023/11/03 01:23:14;;;;;;;6.60;1.20;;;10.10;99.90;;;;;;15517571;22;20476;-81
2023/11/03 01:29:16;;;;;;;7.68;1.20;;;10.10;99.90;;;;;;15523990;22;20049;-82
2023/11/03 01:35:19;;;;;;;7.43;1.02;;;10.10;99.90;;;;;;15514870;22;20031;-80
2023/11/03 01:41:22;;;;;;;5.03;1.00;;;10.20;99.90;;;;;;15521790;22;20023;-81
2023/11/03 01:47:24;;;;;;;6.78;0.82;;;10.20;99.90;;;;;;15528122;22;20023;-82
2023/11/03 01:53:30;;;;;;;6.55;1.00;;;10.20;99.90;;;;;;15519609;22;20032;-82
2023/11/03 01:59:32;;;;;;;8.15;0.95;;;10.20;99.90;;;;;;15548472;22;20049;-83
2023/11/03 02:05:34;;;;;;;4.57;0.90;;;10.30;99.90;;;;;;15546505;22;20034;-81
2023/11/03 02:11:42;;;;;;;7.38;1.30;;;10.20;99.90;;;;;;15517028;22;20154;-79
2023/11/03 02:17:44;;;;;;;4.47;0.82;;;10.10;99.90;;;;;;15517492;22;20020;-80
2023/11/03 02:23:46;;;;;;;3.35;0.93;;;10.10;99.90;;;;;;15548364;22;20039;-80
2023/11/03 02:29:48;;;;;;;6.90;0.77;;;10.00;99.90;;;;;;15543719;22;20023;-83
2023/11/03 02:35:50;;;;;;;5.63;0.90;;;10.10;99.90;;;;;;15506069;22;20386;-79
2023/11/03 02:41:52;;;;;;;4.07;0.60;;;10.00;99.90;;;;;;15515597;22;20093;-80
2023/11/03 02:47:54;;;;;;;5.60;0.60;;;10.00;99.90;;;;;;15521359;22;20038;-82
2023/11/03 02:53:56;;;;;;;5.75;0.88;;;10.10;99.90;;;;;;15514655;22;20501;-81
2023/11/03 02:59:58;;;;;;;5.15;0.85;;;10.10;99.90;;;;;;15547921;22;20027;-82
2023/11/03 03:05:59;;;;;;;4.68;0.95;;;10.10;99.90;;;;;;15539999;22;20027;-80
2023/11/03 03:12:01;;;;;;;2.03;0.57;;;10.00;99.90;;;;;;15548053;22;20023;-82
2023/11/03 03:18:04;;;;;;;5.28;0.93;;;10.10;99.90;;;;;;15516830;22;20050;-82
2023/11/03 03:24:06;;;;;;;6.68;0.93;;;10.00;99.90;;;;;;15538494;22;20142;-81
2023/11/03 03:30:08;;;;;;;10.82;1.42;;;9.90;99.90;;;;;;15510160;22;20028;-82
2023/11/03 03:36:10;;;;;;;5.18;0.80;;;9.90;99.90;;;;;;15510868;22;20409;-83
2023/11/03 03:42:12;;;;;;;6.88;1.85;;;9.90;99.90;;;;;;15545513;22;20027;-83
2023/11/03 03:48:14;;;;;;;4.28;0.73;;;10.00;99.90;;;;;;15508694;22;20452;-80
2023/11/03 03:54:16;;;;;;;4.65;1.58;;;10.00;99.90;;;;;;15577604;22;20024;-80
2023/11/03 04:00:23;;;;;;;2.75;0.52;;;10.00;99.90;;;;;;15564323;22;20020;-82
2023/11/03 04:06:24;;;;;;;4.82;1.40;;;9.90;99.90;;;;;;15614849;22;20043;-82
2023/11/03 04:12:27;;;;;;;4.30;0.50;;;10.00;99.90;;;;;;15612276;22;20019;-81
2023/11/03 04:18:30;;;;;;;3.90;0.60;;;9.90;99.90;;;;;;15595260;22;20027;-84
2023/11/03 04:24:32;;;;;;;3.15;0.60;;;9.90;99.90;;;;;;15585455;22;20098;-81
2023/11/03 04:30:35;;;;;;;3.72;0.40;;;9.90;99.90;;;;;;15619370;22;20035;-84
2023/11/03 04:36:38;;;;;;;1.55;0.47;;;9.80;99.90;;;;;;15572052;22;20046;-82
2023/11/03 04:42:40;;;;;;;3.33;0.60;;;9.80;99.90;;;;;;15575464;22;20028;-80
2023/11/03 04:48:44;;;;;;;3.42;0.50;;;9.70;99.90;;;;;;15584811;22;20035;-82
2023/11/03 04:54:49;;;;;;;3.55;0.60;;;9.70;99.90;;;;;;15577658;22;20027;-83
2023/11/03 05:00:52;;;;;;;1.98;0.50;;;9.70;99.90;;;;;;15582071;22;20024;-81
2023/11/03 05:07:17;;;;;;;2.10;0.50;;;9.70;99.90;;;;;;15532153;22;20107;-32
2023/11/03 05:13:52;;;;;;;1.70;0.63;;;9.60;99.90;;;;;;15516065;22;20027;-33
2023/11/03 05:20:29;;;;;;;4.60;0.68;;;9.50;99.90;;;;;;15569509;22;20027;-33
2023/11/03 05:27:00;;;;;;;5.47;0.55;;;9.50;99.90;;;;;;15541382;22;20090;-33
2023/11/03 05:33:23;;;;;;;3.63;0.50;;;9.50;99.90;;;;;;15536048;22;20485;-33
2023/11/03 05:40:03;;;;;;;3.92;0.60;;;9.60;99.90;;;;;;15565729;22;20048;-33
2023/11/03 05:46:42;;;;;;;4.60;0.50;;;9.60;99.90;;;;;;15564601;22;20030;-33
2023/11/03 05:53:30;;;;;;;3.00;0.50;;;9.60;99.90;;;;;;15569730;22;20019;-32
2023/11/03 06:00:00;;;;;;;2.25;0.60;;;9.60;99.90;;;;;;15571606;22;20026;-33
2023/11/03 06:06:23;;;;;;;4.43;0.68;;;9.60;99.90;;;;;;15566385;22;20121;-33
2023/11/03 06:12:59;;;;;;;5.32;1.30;;;9.70;99.90;;;;;;15566160;22;20485;-33
2023/11/03 06:19:44;;;;;;;4.25;0.60;;;9.60;99.90;;;;;;15568995;22;20026;-33
2023/11/03 06:26:20;;;;;;;3.90;0.73;;;9.60;99.90;;;;;;15569147;22;20023;-32
2023/11/03 06:32:44;;;;;;;5.80;0.70;;;9.60;99.90;;;;;;15535787;22;20027;-33
2023/11/03 06:39:18;;;;;;;2.92;0.90;;;9.60;99.90;;;;;;15565192;22;20537;-32
2023/11/03 06:45:45;;;;;;;4.10;1.10;;;9.60;99.90;;;;;;15540093;22;20400;-33
2023/11/03 06:52:19;;;;;;;4.03;0.60;;;9.70;99.90;;;;;;15565079;22;20489;-33
2023/11/03 06:58:50;;;;;;;7.35;1.00;;;9.70;99.90;;;;;;15568590;22;20103;-34
2023/11/03 07:05:14;;;;;;;3.40;0.75;;;9.70;99.90;;;;;;15541018;22;20272;-33
2023/11/03 07:11:56;;;;;;;6.47;0.90;;;9.80;99.90;;;;;;15567246;22;20091;-33
2023/11/03 07:18:34;;;;;;;7.05;0.98;;;9.80;99.90;;;;;;15564724;22;20082;-33
2023/11/03 07:25:04;;;;;;;6.05;1.10;;;9.80;99.90;;;;;;15543284;22;20019;-33
2023/11/03 07:31:27;;;;;;;3.20;0.70;;;9.80;99.90;;;;;;15564872;22;20027;-32
2023/11/03 07:38:03;;;;;;;2.63;0.63;;;9.90;99.90;;;;;;15562755;22;20521;-33
2023/11/03 07:44:37;;;;;;;5.65;0.95;;;9.90;99.90;;;;;;15565298;22;20499;-34
2023/11/03 07:51:10;;;;;;;6.78;1.17;;;9.80;99.90;;;;;;15558884;22;20028;-33
2023/11/03 07:57:38;;;;;;;7.32;1.55;;;9.90;99.90;;;;;;15562744;22;20525;-33
2023/11/03 08:04:17;;;;;;;7.68;2.20;;;9.90;99.90;;;;;;15545043;22;20023;-33
2023/11/03 08:10:50;;;;;;;4.72;1.30;;;9.90;99.90;;;;;;15563971;22;20023;-33
2023/11/03 08:17:30;;;;;;;3.97;0.90;;;9.90;99.90;;;;;;15566053;22;20019;-33
2023/11/03 08:23:59;;;;;;;6.85;1.30;;;9.90;99.90;;;;;;15561745;22;20066;-33
2023/11/03 08:30:34;;;;;;;6.38;1.08;;;10.10;99.90;;;;;;15562573;22;20342;-33
2023/11/03 08:37:06;;;;;;;5.43;0.95;;;10.00;99.90;;;;;;15561764;22;20030;-33
2023/11/03 08:43:31;;;;;;;7.57;1.33;;;9.90;99.90;;;;;;15561806;22;20035;-34
2023/11/03 08:49:53;;;;;;;7.15;1.48;;;9.80;99.90;;;;;;15539571;22;20035;-35
2023/11/03 08:56:16;;;;;;;11.63;2.45;;;9.70;99.90;;;;;;15561139;22;20020;-33
2023/11/03 09:02:55;;;;;;;9.35;1.52;;;9.40;99.90;;;;;;15561093;22;20024;-32
2023/11/03 09:09:34;;;;;;;4.82;1.10;;;9.30;99.90;;;;;;15562378;22;20027;-34
2023/11/03 09:15:49;;;;;;;6.20;0.90;;;9.10;99.90;;;;;;15563276;22;20066;-33
2023/11/03 09:22:14;;;;;;;7.63;1.48;;;9.10;99.90;;;;;;15533288;22;20020;-33
2023/11/03 09:28:49;;;;;;;8.85;1.75;;;9.00;99.90;;;;;;15544542;22;20095;-34
2023/11/03 09:35:11;;;;;;;6.90;1.15;;;9.10;99.90;;;;;;15564865;22;20027;-33
2023/11/03 09:41:42;;;;;;;4.25;1.10;;;9.20;99.90;;;;;;15570195;22;20023;-34
2023/11/03 09:48:12;;;;;;;5.80;1.30;;;9.20;99.90;;;;;;15542015;22;20027;-33
2023/11/03 09:54:40;;;;;;;6.80;1.48;;;9.30;99.90;;;;;;15568313;22;20020;-34
2023/11/03 10:01:08;;;;;;;11.18;1.48;;;9.50;99.90;;;;;;15543622;22;20399;-34
2023/11/03 10:07:41;;;;;;;11.82;1.48;;;9.80;99.90;;;;;;15565344;22;20027;-33
2023/11/03 10:14:05;;;;;;;9.38;1.67;;;10.00;99.90;;;;;;15567298;22;20142;-33
2023/11/03 10:20:38;;;;;;;5.70;0.88;;;10.30;99.90;;;;;;15542558;22;20024;-33
2023/11/03 10:27:12;;;;;;;7.85;1.40;;;10.10;99.90;;;;;;15544728;22;20505;-33
2023/11/03 10:33:39;;;;;;;4.07;0.90;;;9.90;99.90;;;;;;15544800;22;20020;-33
2023/11/03 10:40:15;;;;;;;11.40;1.48;;;9.80;99.90;;;;;;15566057;22;20020;-33
2023/11/03 10:46:38;;;;;;;8.43;2.25;;;9.80;99.90;;;;;;15567070;22;20034;-33
2023/11/03 10:53:49;;;;;;;6.90;1.20;;;10.20;99.90;;;;;;15566934;22;20019;-35
2023/11/03 11:01:07;;;;;;;9.68;1.73;;;10.20;99.90;;;;;;15565573;22;20034;-33
2023/11/03 11:07:41;;;;;;;5.88;1.00;;;10.30;99.90;;;;;;15551195;22;20106;-34
2023/11/03 11:14:38;;;;;;;7.13;1.60;;;10.40;99.90;;;;;;15559126;22;20023;-34
2023/11/03 11:21:19;;;;;;;10.05;1.27;;;10.70;99.90;;;;;;15563783;22;20350;-33
2023/11/03 11:27:55;;;;;;;7.95;1.45;;;10.60;99.90;;;;;;15566497;22;20028;-33
2023/11/03 11:34:29;;;;;;;6.65;1.33;;;10.70;99.90;;;;;;15563144;22;20031;-34
2023/11/03 11:41:05;;;;;;;6.95;1.60;;;10.90;99.90;;;;;;15564781;22;20493;-33
2023/11/03 11:47:50;;;;;;;8.20;1.20;;;10.90;93.80;;;;;;15558817;22;20027;-33
2023/11/03 11:54:22;;;;;;;10.25;1.65;;;10.90;74.60;;;;;;15558471;22;20081;-33
2023/11/03 12:00:55;;;;;;;7.18;1.50;;;10.90;75.70;;;;;;15562055;22;20015;-33
2023/11/03 12:07:34;;;;;;;10.20;1.63;;;11.20;48.20;;;;;;14820636;22;16542069;-33
2023/11/03 12:14:14;;;;;;;8.63;1.77;;;11.20;63.60;;;;;;15564210;22;20121;-33
2023/11/03 12:21:04;;;;;;;7.22;1.40;;;11.20;39.80;;;;;;15540584;22;20024;-33
2023/11/03 12:27:37;;;;;;;5.97;1.30;;;11.30;29.40;;;;;;15568055;22;20031;-33
2023/11/03 12:34:12;;;;;;;9.60;1.25;;;11.30;29.60;;;;;;15562730;22;20149;-34
2023/11/03 12:40:42;;;;;;;12.10;1.65;;;11.40;18.20;;;;;;15565395;22;20704;-34
2023/11/03 12:47:13;;;;;;;10.75;1.60;;;11.30;22.70;;;;;;15562917;22;20470;-33
2023/11/03 12:54:02;;;;;;;7.82;1.88;;;11.30;79.50;;;;;;15566338;22;20151;-34
2023/11/03 13:00:27;;;;;;;12.18;2.08;;;11.30;53.90;;;;;;15565694;22;20048;-33
2023/11/03 13:07:00;;;;;;;6.75;1.30;;;11.30;52.90;;;;;;15569175;22;20042;-33
2023/11/03 13:13:52;;;;;;;6.82;1.23;;;11.20;40.60;;;;;;15568456;22;20031;-33
2023/11/03 13:20:30;;;;;;;9.68;1.65;;;11.30;12.80;;;;;;15569452;22;20023;-33
2023/11/03 13:27:05;;;;;;;9.80;1.50;;;11.30;19.60;;;;;;15566275;22;20023;-33
2023/11/03 13:33:35;;;;;;;7.93;1.30;;;11.40;22.10;;;;;;15565677;22;20077;-33
2023/11/03 13:40:35;;;;;;;9.33;1.77;;;11.40;49.40;;;;;;15566661;22;20358;-34
2023/11/03 13:47:08;;;;;;;8.00;1.45;;;11.50;11.40;;;;;;15566519;22;20024;-33
2023/11/03 13:53:45;;;;;;;9.40;1.40;;;11.60;12.10;;;;;;15563555;22;20478;-33
2023/11/03 14:00:25;;;;;;;8.57;1.55;;;11.50;45.80;;;;;;15567546;22;20396;-33
2023/11/03 14:06:59;;;;;;;6.18;1.27;;;11.50;1.00;;;;;;15569161;22;20024;-33
2023/11/03 14:13:41;;;;;;;9.77;1.27;;;11.50;1.00;;;;;;15568292;22;20353;-33
2023/11/03 14:20:31;;;;;;;7.32;1.25;;;11.50;22.90;;;;;;15547165;22;20152;-34
2023/11/03 14:27:17;;;;;;;9.18;1.52;;;11.50;27.30;;;;;;15545368;22;20024;-34
2023/11/03 14:33:51;;;;;;;7.22;1.30;;;11.40;1.90;;;;;;15564015;22;20020;-33
2023/11/03 14:40:37;;;;;;;10.25;1.50;;;11.30;1.00;;;;;;15559967;22;20444;-34
2023/11/03 14:47:27;;;;;;;6.55;1.45;;;11.30;39.40;;;;;;15562486;22;20031;-33
2023/11/03 14:54:00;;;;;;;5.22;1.35;;;11.30;6.70;;;;;;15532903;22;20023;-34
2023/11/03 15:00:50;;;;;;;8.17;1.63;;;11.20;3.80;;;;;;15560017;22;20026;-34
2023/11/03 15:07:17;;;;;;;10.07;1.73;;;11.00;72.00;;;;;;15563370;22;20523;-34
2023/11/03 15:13:58;;;;;;;8.75;1.58;;;10.90;71.20;;;;;;15568209;22;20034;-34
2023/11/03 15:20:28;;;;;;;8.18;1.40;;;10.80;99.90;;;;;;15562988;22;20855;-33
2023/11/03 15:27:06;;;;;;;9.02;1.25;;;10.80;99.90;;;;;;15536976;22;20020;-34
2023/11/03 15:33:57;;;;;;;8.35;1.40;;;10.70;82.50;;;;;;15541175;22;20493;-34
2023/11/03 15:40:45;;;;;;;5.55;1.08;;;10.60;95.30;;;;;;15565156;22;20039;-34
2023/11/03 15:47:38;;;;;;;9.38;1.00;;;10.70;82.80;;;;;;15560584;22;20027;-33
2023/11/03 15:54:33;;;;;;;9.40;1.42;;;10.50;90.00;;;;;;15563773;22;20019;-33
2023/11/03 16:01:03;;;;;;;8.65;1.35;;;10.40;99.90;;;;;;15566432;22;20042;-34
2023/11/03 16:07:26;;;;;;;6.70;1.38;;;10.40;99.90;;;;;;15559654;22;20908;-34
2023/11/03 16:14:03;;;;;;;9.43;1.20;;;10.20;99.90;;;;;;15565733;22;20031;-34
2023/11/03 16:20:39;;;;;;;6.55;1.40;;;10.20;99.90;;;;;;15560711;22;20178;-34
2023/11/03 16:27:10;;;;;;;3.88;1.20;;;10.20;99.90;;;;;;15561662;22;20051;-34
2023/11/03 16:33:34;;;;;;;7.60;1.40;;;10.10;99.90;;;;;;15541471;22;20028;-34
2023/11/03 16:40:34;;;;;;;7.28;1.50;;;10.10;99.90;;;;;;15539815;22;20015;-34
2023/11/03 16:47:13;;;;;;;7.90;1.52;;;10.00;99.90;;;;;;15538718;22;20054;-34
2023/11/03 16:53:59;;;;;;;7.82;1.67;;;9.90;99.90;;;;;;15537003;22;20038;-34
2023/11/03 17:00:37;;;;;;;6.53;1.30;;;9.80;99.90;;;;;;15538384;22;20142;-33
2023/11/03 17:07:07;;;;;;;6.95;1.15;;;9.90;99.90;;;;;;15535860;22;20489;-33
2023/11/03 17:13:51;;;;;;;6.80;1.50;;;9.90;99.90;;;;;;15558888;22;20405;-33
2023/11/03 17:20:34;;;;;;;10.25;2.03;;;10.00;99.90;;;;;;15556461;22;20433;-33
2023/11/03 17:26:57;;;;;;;6.45;1.25;;;10.00;99.90;;;;;;15557902;22;20023;-33
2023/11/03 17:33:41;;;;;;;11.40;1.77;;;10.10;99.90;;;;;;15564882;22;20027;-33
2023/11/03 17:40:16;;;;;;;5.55;1.50;;;10.00;97.70;;;;;;15557554;22;20777;-33
2023/11/03 17:46:47;;;;;;;7.85;1.25;;;10.00;99.90;;;;;;15561874;22;20051;-34
2023/11/03 17:53:04;;;;;;;9.23;1.58;;;10.10;99.90;;;;;;15566012;22;20453;-33
2023/11/03 17:59:43;;;;;;;5.90;1.20;;;10.10;99.90;;;;;;15566576;22;20031;-33
2023/11/03 18:06:25;;;;;;;10.93;1.88;;;10.00;99.90;;;;;;15546801;22;20023;-33
2023/11/03 18:13:14;;;;;;;12.50;1.88;;;9.80;99.90;;;;;;15561615;22;20398;-33
2023/11/03 18:19:59;;;;;;;7.68;1.45;;;9.80;99.90;;;;;;15568069;22;20353;-33
2023/11/03 18:26:41;;;;;;;8.60;1.67;;;9.70;99.90;;;;;;15566710;22;20118;-34
2023/11/03 18:33:17;;;;;;;10.43;1.92;;;9.60;99.90;;;;;;15563097;22;20031;-34
2023/11/03 18:39:43;;;;;;;12.15;1.95;;;9.50;99.90;;;;;;15542705;22;20028;-34
2023/11/03 18:46:00;;;;;;;;;;;9.50;99.90;;;;;;15541429;22;20062;-34
2023/11/03 18:52:43;;;;;;;7.85;1.40;;;9.50;99.90;;;;;;15562696;22;19919;-34
2023/11/03 18:59:08;;;;;;;6.97;1.63;;;9.40;99.90;;;;;;15563127;22;20020;-34
2023/11/03 19:05:53;;;;;;;18.35;2.75;;;9.30;99.90;;;;;;15594002;22;20035;-34
2023/11/03 19:12:43;;;;;;;5.78;1.55;;;9.30;99.90;;;;;;15491931;23;20335;-34
2023/11/03 19:19:18;;;;;;;5.45;1.73;;;9.20;99.90;;;;;;15487462;23;20079;-33
2023/11/03 19:25:41;;;;;;;11.05;1.73;;;9.20;99.90;;;;;;15486861;23;20413;-33
2023/11/03 19:32:07;;;;;;;9.57;1.75;;;9.00;99.90;;;;;;15489791;23;20448;-33
2023/11/03 19:38:42;;;;;;;12.38;1.90;;;9.00;99.90;;;;;;15486049;23;20035;-33
2023/11/03 19:45:11;;;;;;;4.70;1.33;;;9.00;99.90;;;;;;15465116;23;20462;-34
2023/11/03 19:51:49;;;;;;;6.93;1.40;;;8.90;99.90;;;;;;15476227;23;20024;-33
2023/11/03 19:58:35;;;;;;;6.05;1.55;;;8.90;99.90;;;;;;15487938;23;20020;-33
2023/11/03 20:05:04;;;;;;;9.63;1.67;;;8.80;94.80;;;;;;15460938;23;20031;-33
2023/11/03 20:11:38;;;;;;;6.90;1.27;;;8.80;99.90;;;;;;15556016;22;20028;-33
2023/11/03 20:18:25;;;;;;;8.55;1.63;;;8.80;99.40;;;;;;15571509;22;20020;-33
2023/11/03 20:25:07;;;;;;;6.65;1.33;;;8.70;89.10;;;;;;15563594;22;20028;-33
2023/11/03 20:31:49;;;;;;;6.68;1.35;;;8.60;93.30;;;;;;15559556;22;20024;-33
2023/11/03 20:38:21;;;;;;;7.10;1.77;;;8.60;99.90;;;;;;15562930;22;20110;-33
2023/11/03 20:44:59;;;;;;;5.53;1.50;;;8.50;99.90;;;;;;15563098;22;20393;-33
2023/11/03 20:51:39;;;;;;;7.22;1.40;;;8.50;99.90;;;;;;15562558;22;20034;-33
2023/11/03 20:58:23;;;;;;;9.98;1.63;;;8.50;99.90;;;;;;15537132;22;20470;-34
2023/11/03 21:05:02;;;;;;;5.25;0.98;;;8.40;91.40;;;;;;15561912;22;20458;-34
2023/11/03 21:11:46;;;;;;;3.63;0.90;;;8.40;99.90;;;;;;15561613;22;20365;-34
2023/11/03 21:18:22;;;;;;;6.45;1.60;;;8.40;99.90;;;;;;15536339;22;20023;-33
2023/11/03 21:25:10;;;;;;;7.18;1.20;;;8.40;92.20;;;;;;15541845;22;20024;-34
2023/11/03 21:31:52;;;;;;;5.88;1.20;;;8.30;99.90;;;;;;15572591;22;20027;-33
2023/11/03 21:38:35;;;;;;;6.80;1.40;;;8.20;99.90;;;;;;15561033;22;20027;-34
2023/11/03 21:45:22;;;;;;;5.40;1.10;;;8.10;99.90;;;;;;15567374;22;20059;-34
2023/11/03 21:52:00;;;;;;;9.88;1.35;;;8.20;99.90;;;;;;15565251;22;20150;-34
2023/11/03 21:58:37;;;;;;;4.13;1.08;;;8.00;93.80;;;;;;15544177;22;20022;-33
2023/11/03 22:05:19;;;;;;;5.85;1.10;;;8.00;99.90;;;;;;15567497;22;20027;-32
2023/11/03 22:11:59;;;;;;;8.15;1.42;;;7.90;95.60;;;;;;15540676;22;20061;-33
2023/11/03 22:18:40;;;;;;;8.15;1.27;;;8.00;99.90;;;;;;15564136;22;20024;-33
2023/11/03 22:25:25;;;;;;;6.15;0.98;;;8.00;99.90;;;;;;15568314;22;20024;-34
2023/11/03 22:32:13;;;;;;;12.05;1.60;;;7.90;99.90;;;;;;15562097;22;20087;-33
2023/11/03 22:38:39;;;;;;;7.20;1.65;;;7.80;99.90;;;;;;15565043;22;20020;-34
2023/11/03 22:45:15;;;;;;;6.10;1.17;;;7.80;99.10;;;;;;15563397;22;20024;-33
2023/11/03 22:51:51;;;;;;;4.28;1.60;;;7.90;99.90;;;;;;15565691;22;20358;-34
2023/11/03 22:58:27;;;;;;;5.73;1.30;;;7.80;99.90;;;;;;15564518;22;20024;-34
2023/11/03 23:04:52;;;;;;;7.35;1.10;;;7.80;99.90;;;;;;15564758;22;20016;-33
2023/11/03 23:11:34;;;;;;;5.25;1.33;;;7.80;99.90;;;;;;15534435;22;20023;-34
2023/11/03 23:18:24;;;;;;;9.50;1.20;;;7.70;99.90;;;;;;15566970;22;20022;-33
2023/11/03 23:25:15;;;;;;;5.55;1.02;;;7.60;99.90;;;;;;15565792;22;20102;-33
2023/11/03 23:31:50;;;;;;;5.13;1.02;;;7.50;99.90;;;;;;15564612;22;20090;-34
2023/11/03 23:38:19;;;;;;;6.65;1.20;;;7.50;99.90;;;;;;15561454;22;20505;-34
2023/11/03 23:44:52;;;;;;;6.57;1.30;;;7.50;99.90;;;;;;15562291;22;20130;-33
2023/11/03 23:51:34;;;;;;;3.58;1.00;;;7.50;99.90;;;;;;15565282;22;20267;-33
2023/11/03 23:58:06;;;;;;;6.45;1.02;;;7.60;99.90;;;;;;15562432;22;20405;-34
